Time;durP1;ratioP1;P1;durP2;ratioP2;P2;SDS_P1;SDS_P2;PMS_P1;PMS_P2;Temp;Humidity;BMP_temperature;BMP_pressure;BME280_temperature;BME280_humidity;BME280_pressure;Samples;Min_cycle;Max_cycle;Signal;HPM_P1;HPM_P2
2023/10/03 00:00:24;;;;;;;13.83;7.13;;;;;;;14.34;79.23;101077.41;5017799;28;20237;-73
2023/10/03 00:02:55;;;;;;;16.50;7.83;;;;;;;14.30;79.26;101072.00;5019668;28;20244;-73
2023/10/03 00:05:22;;;;;;;19.03;8.13;;;;;;;14.27;79.08;101077.19;5003832;28;20335;-73
2023/10/03 00:07:49;;;;;;;13.70;7.27;;;;;;;14.23;79.72;101071.78;5022017;28;20288;-73
2023/10/03 00:10:17;;;;;;;15.00;7.53;;;;;;;14.20;79.53;101072.47;5021252;28;20302;-73
2023/10/03 00:12:44;;;;;;;12.33;7.03;;;;;;;14.16;79.92;101071.56;5021320;28;20567;-73
2023/10/03 00:15:12;;;;;;;12.60;7.10;;;;;;;14.13;79.69;101069.56;5021680;28;20210;-73
2023/10/03 00:17:39;;;;;;;17.27;8.23;;;;;;;14.11;79.61;101058.50;5019109;28;20215;-73
2023/10/03 00:20:08;;;;;;;15.23;7.87;;;;;;;14.07;78.85;101065.59;5022293;28;20319;-73
2023/10/03 00:22:36;;;;;;;18.47;8.30;;;;;;;14.06;78.92;101055.31;5002493;28;20267;-73
2023/10/03 00:25:02;;;;;;;13.83;7.70;;;;;;;14.04;79.00;101055.66;5022098;28;20738;-73
2023/10/03 00:27:29;;;;;;;11.97;7.50;;;;;;;14.04;78.76;101060.97;5004654;28;20566;-73
2023/10/03 00:29:55;;;;;;;20.83;7.83;;;;;;;14.04;78.82;101046.91;5003862;28;20234;-73
2023/10/03 00:32:22;;;;;;;12.90;7.37;;;;;;;14.04;79.25;101046.91;5021729;28;20207;-73
2023/10/03 00:34:50;;;;;;;16.37;7.97;;;;;;;14.02;78.75;101041.94;5003359;28;20674;-73
2023/10/03 00:37:18;;;;;;;13.20;7.30;;;;;;;14.03;79.07;101034.75;5003507;28;20236;-73
2023/10/03 00:39:44;;;;;;;12.83;7.10;;;;;;;14.02;79.60;101041.94;5004823;28;20227;-73
2023/10/03 00:42:11;;;;;;;14.67;6.97;;;;;;;14.01;79.75;101029.78;5000340;28;20215;-74
2023/10/03 00:44:38;;;;;;;14.37;6.97;;;;;;;14.00;79.86;101038.06;5004027;28;20218;-73
2023/10/03 00:47:07;;;;;;;14.07;7.37;;;;;;;13.99;79.45;101025.91;5019070;28;20213;-73
2023/10/03 00:49:34;;;;;;;19.27;7.60;;;;;;;13.97;79.72;101023.59;5023105;28;20220;-73
2023/10/03 00:52:05;;;;;;;14.50;7.13;;;;;;;13.95;79.98;101020.50;5002676;28;20356;-74
2023/10/03 00:54:33;;;;;;;13.17;7.63;;;;;;;13.93;80.41;101014.75;5003545;28;20578;-73
2023/10/03 00:56:59;;;;;;;16.83;7.50;;;;;;;13.92;80.40;101015.09;5020153;28;20711;-73
2023/10/03 00:59:28;;;;;;;14.30;7.60;;;;;;;13.90;80.58;101012.78;5001165;28;20222;-73
2023/10/03 01:02:00;;;;;;;19.23;7.33;;;;;;;13.87;80.23;101016.09;5001996;28;20757;-73
2023/10/03 01:04:34;;;;;;;11.30;7.07;;;;;;;13.85;80.20;101017.53;5022175;28;20561;-73
2023/10/03 01:07:01;;;;;;;14.13;7.33;;;;;;;13.82;80.55;101015.56;5020339;28;20265;-73
2023/10/03 01:09:30;;;;;;;16.23;6.10;;;;;;;13.81;81.13;101012.13;5020030;28;20228;-73
2023/10/03 01:11:58;;;;;;;15.37;7.30;;;;;;;13.79;81.03;101013.56;5021286;28;20287;-73
2023/10/03 01:14:26;;;;;;;12.97;7.23;;;;;;;13.78;81.02;101012.03;5020526;28;20666;-73
2023/10/03 01:16:53;;;;;;;11.87;6.57;;;;;;;13.76;81.43;101008.94;5003169;28;20298;-73
2023/10/03 01:19:21;;;;;;;15.10;7.80;;;;;;;13.73;81.54;101004.31;5004574;28;20230;-73
2023/10/03 01:21:49;;;;;;;13.27;7.07;;;;;;;13.70;81.67;101000.44;5008687;28;20647;-73
2023/10/03 01:24:22;;;;;;;11.73;7.13;;;;;;;13.68;81.92;100997.34;5024564;28;20615;-73
2023/10/03 01:26:52;;;;;;;12.47;7.00;;;;;;;13.66;81.79;100999.56;5006234;28;20321;-73
2023/10/03 01:29:18;;;;;;;12.30;6.70;;;;;;;13.62;82.11;100993.38;5023581;28;20720;-73
2023/10/03 01:31:45;;;;;;;13.33;6.97;;;;;;;13.60;81.97;100998.25;5025952;28;20205;-73
2023/10/03 01:34:12;;;;;;;11.93;6.63;;;;;;;13.56;82.11;100984.09;5019984;28;20672;-73
2023/10/03 01:36:40;;;;;;;11.93;6.83;;;;;;;13.54;82.25;100983.66;5007237;28;20696;-73
2023/10/03 01:39:07;;;;;;;10.97;6.27;;;;;;;13.51;82.17;100980.91;5007053;28;20210;-73
2023/10/03 01:41:35;;;;;;;14.07;7.20;;;;;;;13.49;82.14;100973.28;5017171;28;20299;-73
2023/10/03 01:44:01;;;;;;;14.77;7.00;;;;;;;13.47;82.87;100980.81;5007427;28;20213;-73
2023/10/03 01:46:28;;;;;;;12.67;6.90;;;;;;;13.44;82.26;100973.50;5020565;28;20742;-73
2023/10/03 01:48:56;;;;;;;13.33;6.73;;;;;;;13.41;82.42;100962.81;5005766;28;20217;-73
2023/10/03 01:51:23;;;;;;;12.03;6.57;;;;;;;13.39;82.48;100957.81;5009095;28;20224;-73
2023/10/03 01:53:50;;;;;;;14.40;7.17;;;;;;;13.36;82.90;100950.53;5005182;28;20214;-73
2023/10/03 01:56:17;;;;;;;18.37;7.13;;;;;;;13.35;83.08;100950.88;5021056;28;20221;-73
2023/10/03 01:58:45;;;;;;;14.63;7.47;;;;;;;13.31;82.51;100931.44;5007339;28;20710;-73
2023/10/03 02:01:12;;;;;;;18.67;7.97;;;;;;;13.28;83.07;100940.03;5018635;28;20234;-73
2023/10/03 02:03:39;;;;;;;10.37;6.33;;;;;;;13.26;82.93;100932.41;5005641;28;20319;-74
2023/10/03 02:06:07;;;;;;;12.50;7.47;;;;;;;13.25;83.13;100919.50;5006505;28;20197;-73
2023/10/03 02:08:33;;;;;;;13.70;6.67;;;;;;;13.21;82.84;100922.06;5008603;28;20337;-73
2023/10/03 02:11:05;;;;;;;14.17;7.50;;;;;;;13.20;82.67;100919.75;5023240;28;20236;-73
2023/10/03 02:13:34;;;;;;;14.33;7.10;;;;;;;13.18;82.56;100919.28;5006069;28;20213;-74
2023/10/03 02:16:02;;;;;;;14.37;7.77;;;;;;;13.16;82.95;100914.34;5011742;28;20607;-73
2023/10/03 02:18:28;;;;;;;16.60;7.97;;;;;;;13.15;83.31;100918.06;5006969;28;20670;-73
2023/10/03 02:21:01;;;;;;;18.13;7.50;;;;;;;13.14;83.48;100907.81;5005232;28;20734;-73
2023/10/03 02:23:28;;;;;;;18.30;7.33;;;;;;;13.12;83.74;100910.03;5007641;28;20254;-73
2023/10/03 02:25:56;;;;;;;13.93;7.23;;;;;;;13.12;84.03;100904.72;5007644;28;20221;-73
2023/10/03 02:28:26;;;;;;;16.10;7.33;;;;;;;13.11;83.64;100905.81;5021211;28;20218;-73
2023/10/03 02:30:54;;;;;;;13.57;7.70;;;;;;;13.09;83.82;100905.41;5006518;28;20245;-73
2023/10/03 02:33:24;;;;;;;19.93;7.87;;;;;;;13.07;83.96;100903.06;5006228;28;20217;-73
2023/10/03 02:35:54;;;;;;;14.83;7.13;;;;;;;13.07;84.39;100899.63;5005718;28;20657;-73
2023/10/03 02:38:25;;;;;;;18.97;7.67;;;;;;;13.05;84.39;100899.97;5007235;28;20345;-73
2023/10/03 02:40:54;;;;;;;15.17;7.67;;;;;;;13.03;84.33;100885.50;5007487;28;20321;-73
2023/10/03 02:43:22;;;;;;;18.03;7.43;;;;;;;13.01;84.41;100887.72;5005255;28;20214;-73
2023/10/03 02:45:49;;;;;;;16.40;7.10;;;;;;;12.98;84.34;100881.22;5004187;28;20229;-73
2023/10/03 02:48:16;;;;;;;15.43;8.07;;;;;;;12.97;84.43;100877.03;5007461;28;20236;-73
2023/10/03 02:50:47;;;;;;;13.67;7.20;;;;;;;12.95;84.58;100881.09;5007882;28;20277;-73
2023/10/03 02:53:19;;;;;;;15.33;7.70;;;;;;;12.94;84.36;100876.88;5005889;28;20208;-73
2023/10/03 02:55:46;;;;;;;15.27;7.37;;;;;;;12.91;84.49;100873.03;5005780;28;20217;-73
2023/10/03 02:58:16;;;;;;;15.43;7.63;;;;;;;12.91;84.54;100870.38;5004642;28;20202;-73
2023/10/03 03:00:46;;;;;;;14.07;7.03;;;;;;;12.91;84.84;100864.28;5007186;28;20231;-73
2023/10/03 03:03:14;;;;;;;18.40;8.07;;;;;;;12.90;84.70;100854.81;5024809;28;20214;-73
2023/10/03 03:05:43;;;;;;;14.20;7.90;;;;;;;12.88;84.55;100852.47;5006963;28;20669;-73
2023/10/03 03:08:23;;;;;;;14.60;7.47;;;;;;;12.90;84.36;100847.63;5006558;28;20223;-73
2023/10/03 03:10:55;;;;;;;16.67;7.73;;;;;;;12.90;83.44;100834.38;5016632;28;20230;-73
2023/10/03 03:13:26;;;;;;;15.23;9.07;;;;;;;12.91;83.69;100825.31;5022802;28;20215;-73
2023/10/03 03:15:59;;;;;;;17.03;7.93;;;;;;;12.97;84.09;100825.88;5005274;28;20300;-73
2023/10/03 03:18:26;;;;;;;21.30;8.73;;;;;;;12.98;83.57;100825.53;5005319;28;20670;-73
2023/10/03 03:20:57;;;;;;;14.37;7.53;;;;;;;13.03;82.78;100824.53;5022967;28;20237;-73
2023/10/03 03:23:30;;;;;;;13.77;7.83;;;;;;;13.08;83.37;100824.28;5023686;28;20218;-74
2023/10/03 03:26:12;;;;;;;16.60;7.97;;;;;;;13.12;82.80;100820.66;5005987;28;20229;-73
2023/10/03 03:28:50;;;;;;;16.80;7.53;;;;;;;13.16;82.66;100810.94;5022378;28;20210;-73
2023/10/03 03:31:22;;;;;;;18.43;7.70;;;;;;;13.23;82.94;100812.97;5024636;28;20219;-73
2023/10/03 03:33:50;;;;;;;16.13;7.77;;;;;;;13.26;82.51;100802.47;5024973;28;20681;-73
2023/10/03 03:36:19;;;;;;;17.53;7.33;;;;;;;13.30;82.47;100803.34;5022354;28;20622;-73
2023/10/03 03:38:49;;;;;;;19.33;9.13;;;;;;;13.36;81.90;100793.28;5023309;28;20199;-73
2023/10/03 03:41:16;;;;;;;17.47;7.97;;;;;;;13.39;81.54;100789.94;5023445;28;20215;-73
2023/10/03 03:43:43;;;;;;;18.50;7.50;;;;;;;13.43;81.33;100790.81;5020045;28;20228;-73
2023/10/03 03:46:10;;;;;;;15.90;7.53;;;;;;;13.47;81.35;100779.19;5021790;28;20234;-73
2023/10/03 03:48:38;;;;;;;17.07;7.90;;;;;;;13.50;82.13;100778.50;5023802;28;20531;-73
2023/10/03 03:51:06;;;;;;;15.07;8.10;;;;;;;13.52;81.43;100768.34;5020382;28;20273;-73
2023/10/03 03:53:32;;;;;;;17.77;7.53;;;;;;;13.56;81.53;100760.47;5022878;28;20420;-73
2023/10/03 03:56:01;;;;;;;15.13;7.20;;;;;;;13.58;80.87;100755.56;5021224;28;20242;-73
2023/10/03 03:58:27;;;;;;;14.00;7.40;;;;;;;13.62;80.64;100753.78;5021586;28;20194;-73
2023/10/03 04:00:54;;;;;;;15.20;8.17;;;;;;;13.65;80.00;100756.53;5020474;28;20222;-73
2023/10/03 04:03:23;;;;;;;14.57;7.30;;;;;;;13.68;80.15;100749.78;5019861;28;20723;-73
2023/10/03 04:05:50;;;;;;;17.53;7.27;;;;;;;13.71;79.86;100746.44;5020978;28;21152;-73
2023/10/03 04:08:18;;;;;;;15.67;7.43;;;;;;;13.73;79.92;100752.16;5002782;28;20220;-73
2023/10/03 04:10:45;;;;;;;16.03;7.50;;;;;;;13.74;79.89;100749.19;5022097;28;20237;-73
2023/10/03 04:13:15;;;;;;;15.53;8.00;;;;;;;13.75;79.95;100750.72;5019222;28;20256;-73
2023/10/03 04:15:43;;;;;;;14.80;7.23;;;;;;;13.76;79.52;100744.28;5021006;28;20205;-73
2023/10/03 04:18:09;;;;;;;15.03;7.17;;;;;;;13.77;79.72;100734.47;5021049;28;20201;-73
2023/10/03 04:20:37;;;;;;;19.40;8.13;;;;;;;13.77;79.84;100731.81;5019374;28;20325;-74
2023/10/03 04:23:05;;;;;;;15.27;7.17;;;;;;;13.77;79.79;100734.47;5002143;28;20207;-73
2023/10/03 04:25:33;;;;;;;17.93;7.67;;;;;;;13.76;79.59;100730.28;5020691;28;20295;-73
2023/10/03 04:27:59;;;;;;;16.00;7.23;;;;;;;13.76;79.75;100730.28;5019261;28;20224;-73
2023/10/03 04:30:28;;;;;;;15.63;6.80;;;;;;;13.75;79.47;100726.06;5022143;28;20244;-73
2023/10/03 04:32:55;;;;;;;15.03;6.87;;;;;;;13.74;79.57;100716.56;5020731;28;20931;-73
2023/10/03 04:35:23;;;;;;;12.43;6.97;;;;;;;13.72;79.76;100706.28;5021483;28;20230;-73
2023/10/03 04:37:51;;;;;;;14.17;6.73;;;;;;;13.73;79.50;100709.72;5022554;28;20186;-73
2023/10/03 04:40:22;;;;;;;15.67;7.30;;;;;;;13.72;78.92;100708.19;5020916;28;20639;-73
2023/10/03 04:42:49;;;;;;;17.33;7.00;;;;;;;13.73;78.95;100707.06;5021731;28;20313;-73
2023/10/03 04:45:18;;;;;;;15.67;7.17;;;;;;;13.73;79.48;100699.09;5003149;28;20193;-73
2023/10/03 04:47:47;;;;;;;12.77;6.57;;;;;;;13.73;79.13;100696.44;5019795;28;20217;-73
2023/10/03 04:50:16;;;;;;;15.90;7.10;;;;;;;13.75;78.45;100691.56;5020523;28;20655;-73
2023/10/03 04:52:43;;;;;;;13.70;6.73;;;;;;;13.75;78.02;100689.69;5021265;28;20205;-73
2023/10/03 04:55:09;;;;;;;11.73;6.53;;;;;;;13.80;78.93;100689.41;5027978;28;20276;-74
2023/10/03 04:57:41;;;;;;;16.23;6.97;;;;;;;13.82;78.70;100683.78;5022429;28;20224;-73
2023/10/03 05:00:09;;;;;;;13.43;6.27;;;;;;;13.85;79.03;100691.03;5024603;28;20233;-73
2023/10/03 05:02:35;;;;;;;10.90;6.07;;;;;;;13.87;78.29;100694.13;5022553;28;20221;-73
2023/10/03 05:05:03;;;;;;;11.70;6.53;;;;;;;13.89;78.62;100700.63;5017678;28;20806;-73
2023/10/03 05:07:29;;;;;;;12.37;6.03;;;;;;;13.91;77.95;100689.66;5022065;28;20214;-73
2023/10/03 05:09:56;;;;;;;13.10;6.27;;;;;;;13.96;77.94;100689.38;5022521;28;20387;-73
2023/10/03 05:12:24;;;;;;;14.70;6.10;;;;;;;14.01;77.67;100689.13;5022931;28;20562;-73
2023/10/03 05:14:51;;;;;;;15.90;6.57;;;;;;;14.05;77.54;100684.66;5023000;28;20207;-74
2023/10/03 05:17:18;;;;;;;12.53;5.67;;;;;;;14.08;77.14;100692.72;5022268;28;20226;-73
2023/10/03 05:19:44;;;;;;;13.07;6.07;;;;;;;14.12;77.68;100690.91;5020235;28;20219;-73
2023/10/03 05:22:13;;;;;;;18.13;6.60;;;;;;;14.16;77.74;100689.13;5003558;28;20217;-73
2023/10/03 05:24:39;;;;;;;13.27;6.10;;;;;;;14.20;77.21;100686.56;5022129;28;20929;-73
2023/10/03 05:27:07;;;;;;;11.63;5.47;;;;;;;14.24;77.22;100687.41;5023500;28;20227;-73
2023/10/03 05:29:33;;;;;;;15.47;6.30;;;;;;;14.27;77.58;100679.53;5021477;28;20244;-73
2023/10/03 05:32:00;;;;;;;11.93;6.23;;;;;;;14.30;77.03;100678.84;5022017;28;20196;-73
2023/10/03 05:34:26;;;;;;;13.57;6.50;;;;;;;14.35;76.75;100675.91;5022360;28;20761;-73
2023/10/03 05:36:53;;;;;;;11.27;5.67;;;;;;;14.40;76.61;100674.84;5020851;28;20210;-73
2023/10/03 05:39:20;;;;;;;12.67;6.10;;;;;;;14.44;76.64;100671.16;5022157;28;20211;-73
2023/10/03 05:41:47;;;;;;;17.40;6.33;;;;;;;14.50;76.04;100666.34;5023063;28;20266;-73
2023/10/03 05:44:13;;;;;;;13.43;6.23;;;;;;;14.53;76.35;100668.28;5021315;28;20204;-73
2023/10/03 05:46:40;;;;;;;12.90;6.27;;;;;;;14.57;76.38;100667.25;5021446;28;20315;-73
2023/10/03 05:49:07;;;;;;;10.70;5.23;;;;;;;14.63;76.20;100670.38;5020926;28;20734;-73
2023/10/03 05:51:34;;;;;;;11.07;5.73;;;;;;;14.66;76.12;100667.03;5021078;28;20558;-73
2023/10/03 05:54:01;;;;;;;11.70;5.77;;;;;;;14.72;75.71;100669.06;5020289;28;20642;-73
2023/10/03 05:56:28;;;;;;;14.00;5.77;;;;;;;14.77;75.63;100666.13;5019367;28;20192;-74
2023/10/03 05:58:55;;;;;;;12.70;6.10;;;;;;;14.85;75.86;100672.34;5018995;28;20194;-74
2023/10/03 06:01:21;;;;;;;12.93;6.20;;;;;;;14.90;75.96;100664.84;5017941;28;20211;-73
2023/10/03 06:03:47;;;;;;;11.47;5.80;;;;;;;15.00;75.80;100671.50;5016365;28;20204;-73
2023/10/03 06:06:15;;;;;;;11.80;5.63;;;;;;;15.09;75.44;100664.06;5018634;28;20204;-73
2023/10/03 06:08:41;;;;;;;14.53;5.60;;;;;;;15.17;74.83;100665.72;5020192;28;20262;-73
2023/10/03 06:11:08;;;;;;;13.10;6.30;;;;;;;15.25;74.88;100660.19;4998686;28;20227;-74
2023/10/03 06:13:35;;;;;;;15.57;6.40;;;;;;;15.36;75.09;100660.41;5018193;28;21022;-74
2023/10/03 06:16:03;;;;;;;13.37;6.27;;;;;;;15.45;74.89;100650.25;5016458;28;20201;-73
2023/10/03 06:18:29;;;;;;;12.13;5.87;;;;;;;15.59;74.06;100653.94;5017211;28;20213;-73
2023/10/03 06:20:57;;;;;;;13.10;5.97;;;;;;;15.68;74.01;100649.13;4997796;28;20302;-74
2023/10/03 06:23:24;;;;;;;14.20;6.63;;;;;;;15.82;73.95;100644.00;5015211;28;20206;-74
2023/10/03 06:25:51;;;;;;;12.03;6.00;;;;;;;15.95;73.51;100639.25;4997097;28;20215;-73
2023/10/03 06:28:17;;;;;;;14.60;6.20;;;;;;;16.09;73.19;100632.22;5016188;28;20220;-74
2023/10/03 06:30:45;;;;;;;13.37;6.90;;;;;;;16.25;72.75;100630.16;5015738;28;20706;-73
2023/10/03 06:33:12;;;;;;;12.93;6.50;;;;;;;16.39;71.97;100633.03;5014628;28;20207;-73
2023/10/03 06:35:38;;;;;;;15.50;6.10;;;;;;;16.52;71.90;100636.22;5014187;28;20200;-74
2023/10/03 06:38:05;;;;;;;14.43;6.00;;;;;;;16.64;71.50;100628.75;4997018;28;20202;-74
2023/10/03 06:40:31;;;;;;;14.47;5.53;;;;;;;16.77;70.93;100631.94;5013250;28;20309;-74
2023/10/03 06:42:57;;;;;;;12.07;5.80;;;;;;;16.93;70.56;100621.81;5011460;28;20218;-74
2023/10/03 06:45:24;;;;;;;15.93;6.43;;;;;;;17.07;69.87;100613.97;5017700;28;20196;-74
2023/10/03 06:47:51;;;;;;;13.30;6.37;;;;;;;17.30;68.81;100609.97;5024618;28;20214;-74
2023/10/03 06:50:18;;;;;;;13.77;6.63;;;;;;;17.44;68.58;100615.44;5015087;28;20223;-74
2023/10/03 06:52:45;;;;;;;16.40;6.90;;;;;;;17.59;68.17;100617.06;5015198;28;20208;-74
2023/10/03 06:55:15;;;;;;;13.40;6.33;;;;;;;17.72;68.73;100621.00;5012273;28;20212;-74
2023/10/03 06:57:42;;;;;;;16.97;6.17;;;;;;;17.90;67.22;100605.06;5013010;28;20904;-74
2023/10/03 07:00:13;;;;;;;14.33;6.37;;;;;;;18.02;67.24;100607.44;5010508;28;20231;-74
2023/10/03 07:02:39;;;;;;;16.13;6.80;;;;;;;18.18;66.45;100614.00;5000956;28;20219;-74
2023/10/03 07:05:08;;;;;;;19.33;7.80;;;;;;;18.34;67.30;100619.06;4989542;28;20204;-74
2023/10/03 07:07:34;;;;;;;15.37;6.83;;;;;;;18.45;67.13;100615.28;5008882;28;20242;-74
2023/10/03 07:10:00;;;;;;;13.67;6.27;;;;;;;18.57;65.94;100617.63;5006018;28;20227;-74
2023/10/03 07:12:27;;;;;;;19.47;7.43;;;;;;;18.72;66.57;100605.81;5007320;28;20459;-74
2023/10/03 07:14:53;;;;;;;14.73;6.90;;;;;;;18.86;64.00;100607.75;4993630;28;20289;-74
2023/10/03 07:17:20;;;;;;;18.40;7.07;;;;;;;18.98;63.99;100612.72;5005996;28;20200;-74
2023/10/03 07:19:48;;;;;;;18.40;7.47;;;;;;;19.11;62.08;100616.56;4987896;28;20224;-74
2023/10/03 07:22:17;;;;;;;24.20;8.20;;;;;;;19.21;62.15;100613.97;5006388;28;20219;-74
2023/10/03 07:24:44;;;;;;;16.33;7.23;;;;;;;19.29;62.98;100607.44;5004877;28;21044;-74
2023/10/03 07:27:13;;;;;;;20.67;7.40;;;;;;;19.37;62.86;100608.97;5006177;28;20683;-74
2023/10/03 07:29:42;;;;;;;18.13;7.30;;;;;;;19.45;60.60;100599.78;5003037;28;21743;-74
2023/10/03 07:32:12;;;;;;;16.30;6.90;;;;;;;19.57;61.00;100601.31;5003712;28;20658;-74
2023/10/03 07:34:42;;;;;;;16.23;7.53;;;;;;;19.66;61.76;100597.06;5004060;28;21042;-74
2023/10/03 07:37:09;;;;;;;15.73;7.17;;;;;;;19.76;60.30;100590.19;5002761;28;20203;-74
2023/10/03 07:39:38;;;;;;;16.70;7.20;;;;;;;19.87;59.90;100597.03;5000278;28;21368;-74
2023/10/03 07:42:05;;;;;;;17.63;7.37;;;;;;;19.96;59.41;100594.72;5000961;28;20655;-73
2023/10/03 07:44:32;;;;;;;17.73;7.40;;;;;;;20.06;60.25;100590.47;5001966;28;20226;-74
2023/10/03 07:46:58;;;;;;;20.37;7.77;;;;;;;20.16;58.64;100590.47;5001765;28;20227;-74
2023/10/03 07:49:25;;;;;;;17.50;7.57;;;;;;;20.27;61.68;100583.13;5002101;28;20232;-74
2023/10/03 07:51:53;;;;;;;17.00;7.47;;;;;;;20.39;59.24;100590.00;4999984;28;20228;-74
2023/10/03 07:54:20;;;;;;;17.30;7.77;;;;;;;20.47;60.11;100588.78;4999984;28;20204;-74
2023/10/03 07:56:48;;;;;;;20.60;8.83;;;;;;;20.53;59.24;100582.63;5001048;28;20203;-74
2023/10/03 07:59:15;;;;;;;17.87;8.70;;;;;;;20.60;57.74;100589.88;4999339;28;20308;-74
2023/10/03 08:01:42;;;;;;;21.03;8.33;;;;;;;20.68;59.15;100591.34;5000454;28;20795;-74
2023/10/03 08:04:12;;;;;;;19.37;8.63;;;;;;;20.74;57.68;100587.88;5000030;28;20660;-74
2023/10/03 08:06:40;;;;;;;19.90;8.30;;;;;;;20.81;56.76;100581.69;5001554;28;21299;-74
2023/10/03 08:09:08;;;;;;;23.37;8.30;;;;;;;20.86;59.46;100582.03;5000735;28;20223;-74
2023/10/03 08:11:35;;;;;;;18.53;8.30;;;;;;;20.92;56.49;100583.19;4980680;28;20215;-74
2023/10/03 08:14:11;;;;;;;22.93;8.37;;;;;;;21.01;56.76;100580.06;4999031;28;20235;-74
2023/10/03 08:16:40;;;;;;;16.23;7.67;;;;;;;21.11;56.52;100577.28;4998928;28;20215;-74
2023/10/03 08:19:08;;;;;;;17.10;7.90;;;;;;;21.22;57.29;100572.56;4998214;28;20196;-74
2023/10/03 08:21:35;;;;;;;18.17;7.73;;;;;;;21.31;56.97;100562.16;4999024;28;20572;-74
2023/10/03 08:24:09;;;;;;;19.43;8.17;;;;;;;21.40;57.21;100562.44;4997913;28;20666;-74
2023/10/03 08:26:37;;;;;;;19.50;8.00;;;;;;;21.50;55.53;100563.50;4998748;28;20740;-74
2023/10/03 08:29:05;;;;;;;19.70;7.73;;;;;;;21.58;54.90;100562.28;4979131;28;21421;-74
2023/10/03 08:31:31;;;;;;;16.27;7.23;;;;;;;21.64;56.55;100566.06;4997453;28;20208;-74
2023/10/03 08:33:58;;;;;;;22.17;8.70;;;;;;;21.75;54.47;100566.72;4997262;28;20200;-74
2023/10/03 08:36:28;;;;;;;23.87;8.70;;;;;;;21.83;55.08;100568.94;4995577;28;20225;-74
2023/10/03 08:39:04;;;;;;;17.03;8.27;;;;;;;21.94;53.79;100550.00;4994678;28;20241;-74
2023/10/03 08:41:45;;;;;;;19.17;8.00;;;;;;;22.03;54.49;100547.56;4973616;28;20948;-74
2023/10/03 08:44:13;;;;;;;20.50;7.83;;;;;;;22.16;53.09;100545.91;4994698;28;20206;-74
2023/10/03 08:46:45;;;;;;;15.70;7.53;;;;;;;22.25;53.55;100546.91;4996703;28;20204;-74
2023/10/03 08:49:17;;;;;;;16.33;7.43;;;;;;;22.44;51.60;100550.91;4978001;28;20489;-74
2023/10/03 08:51:44;;;;;;;16.83;7.63;;;;;;;22.61;52.90;100539.91;4995893;28;20203;-74
2023/10/03 08:54:12;;;;;;;18.97;7.70;;;;;;;22.72;51.41;100527.03;4996973;28;20668;-74
2023/10/03 08:56:41;;;;;;;16.38;7.30;;;;;;;22.85;52.95;100519.16;4996114;28;20212;-74
2023/10/03 08:59:09;;;;;;;18.77;7.93;;;;;;;22.97;51.78;100530.13;4994695;28;20203;-74
2023/10/03 09:01:39;;;;;;;18.83;8.10;;;;;;;23.12;50.24;100534.09;4993647;28;20340;-74
2023/10/03 09:04:15;;;;;;;18.85;7.63;;;;;;;23.27;49.04;100524.63;4973044;28;20441;-74
2023/10/03 09:06:43;;;;;;;19.15;7.55;;;;;;;23.36;48.97;100532.16;4972978;28;20399;-74
2023/10/03 09:09:13;;;;;;;16.83;8.10;;;;;;;23.47;48.78;100532.00;4991418;28;20422;-74
2023/10/03 09:11:42;;;;;;;16.13;7.18;;;;;;;23.59;49.54;100532.16;4993468;28;20212;-74
2023/10/03 09:14:12;;;;;;;18.27;8.15;;;;;;;23.69;47.67;100533.88;4990549;28;20219;-74
2023/10/03 09:16:39;;;;;;;18.90;8.52;;;;;;;23.74;48.13;100523.34;4992839;28;20629;-74
2023/10/03 09:19:07;;;;;;;17.90;7.40;;;;;;;23.83;49.66;100520.09;4992143;28;20219;-74
2023/10/03 09:21:33;;;;;;;15.98;7.75;;;;;;;23.85;47.45;100512.38;4990884;28;20216;-74
2023/10/03 09:24:02;;;;;;;18.10;8.07;;;;;;;23.90;49.83;100514.63;4990583;28;21332;-74
2023/10/03 09:26:45;;;;;;;17.13;7.70;;;;;;;23.99;48.14;100520.19;4991725;28;20242;-75
2023/10/03 09:29:11;;;;;;;16.95;7.88;;;;;;;24.10;47.47;100507.22;4991238;28;20215;-72
2023/10/03 09:31:41;;;;;;;17.17;7.38;;;;;;;24.19;47.97;100495.88;4986661;28;20302;-73
2023/10/03 09:34:13;;;;;;;16.67;7.53;;;;;;;24.27;46.79;100495.31;4990973;28;20211;-73
2023/10/03 09:36:40;;;;;;;16.85;7.40;;;;;;;24.34;48.02;100491.69;4992102;28;20860;-73
2023/10/03 09:39:07;;;;;;;16.75;8.23;;;;;;;24.37;47.61;100493.53;4992405;28;20663;-74
2023/10/03 09:41:38;;;;;;;13.55;7.10;;;;;;;24.41;46.14;100492.28;4993652;28;20216;-74
2023/10/03 09:44:07;;;;;;;19.10;7.72;;;;;;;24.43;47.00;100489.94;4989859;28;20208;-74
2023/10/03 09:46:39;;;;;;;15.60;7.68;;;;;;;24.46;46.45;100472.88;4992848;28;20970;-74
2023/10/03 09:49:12;;;;;;;15.75;7.38;;;;;;;24.48;45.35;100470.53;4994183;28;20219;-73
2023/10/03 09:51:47;;;;;;;15.07;6.90;;;;;;;24.50;45.02;100462.03;4992341;28;20199;-74
2023/10/03 09:54:24;;;;;;;15.07;7.53;;;;;;;24.51;46.39;100472.38;4994047;28;20202;-74
2023/10/03 09:56:51;;;;;;;15.48;6.93;;;;;;;24.55;45.62;100470.34;4992796;28;20202;-72
2023/10/03 09:59:19;;;;;;;14.35;7.10;;;;;;;24.53;46.55;100467.31;4997157;28;20220;-72
2023/10/03 10:01:46;;;;;;;21.17;6.78;;;;;;;24.56;47.45;100468.44;4994997;28;20206;-72
2023/10/03 10:04:19;;;;;;;17.75;8.35;;;;;;;24.62;46.12;100469.47;4994522;28;20204;-72
2023/10/03 10:06:50;;;;;;;17.92;8.02;;;;;;;24.73;44.23;100443.72;4994128;28;20291;-72
2023/10/03 10:09:28;;;;;;;15.38;6.88;;;;;;;24.84;45.29;100429.94;4997111;28;20709;-72
2023/10/03 10:12:13;;;;;;;16.83;7.60;;;;;;;24.99;44.75;100431.09;4994155;28;20199;-72
2023/10/03 10:15:13;;;;;;;14.43;7.00;;;;;;;25.14;44.00;100457.31;4991821;28;20216;-72
2023/10/03 10:17:45;;;;;;;15.45;6.18;;;;;;;25.23;44.93;100438.53;4990129;28;20683;-73
2023/10/03 10:20:17;;;;;;;15.50;6.40;;;;;;;25.28;44.10;100434.59;4991959;28;20220;-73
2023/10/03 10:23:16;;;;;;;14.40;7.03;;;;;;;25.30;44.36;100430.28;4992311;28;21636;-73
2023/10/03 10:25:56;;;;;;;18.63;7.88;;;;;;;25.33;43.33;100434.06;4992808;28;20214;-73
2023/10/03 10:28:34;;;;;;;13.23;6.80;;;;;;;25.32;43.00;100438.72;4991174;28;20196;-73
2023/10/03 10:31:21;;;;;;;16.73;6.63;;;;;;;25.32;43.08;100446.81;4991081;28;20726;-73
2023/10/03 10:33:49;;;;;;;19.73;7.05;;;;;;;25.34;44.86;100444.44;4964366;28;21486;-72
2023/10/03 10:36:18;;;;;;;17.40;7.63;;;;;;;25.35;43.38;100440.56;4993548;28;20215;-72
2023/10/03 10:38:55;;;;;;;14.30;6.78;;;;;;;25.41;44.31;100429.97;4991970;28;20208;-73
2023/10/03 10:41:27;;;;;;;16.85;7.40;;;;;;;25.45;43.95;100411.72;4992444;28;20683;-73
2023/10/03 10:44:08;;;;;;;15.13;7.50;;;;;;;25.51;44.15;100413.47;4987269;28;20283;-73
2023/10/03 10:46:37;;;;;;;17.25;7.25;;;;;;;25.58;43.23;100409.81;4986943;28;20210;-73
2023/10/03 10:49:06;;;;;;;18.42;6.93;;;;;;;25.64;43.70;100408.81;4990373;28;20981;-73
2023/10/03 10:51:36;;;;;;;21.85;7.47;;;;;;;25.70;44.59;100411.75;4992215;28;20208;-73
2023/10/03 10:54:04;;;;;;;15.82;6.70;;;;;;;25.75;44.01;100403.09;4988950;28;20291;-73
2023/10/03 10:56:32;;;;;;;14.68;6.68;;;;;;;25.79;43.09;100398.34;4988089;28;20208;-73
2023/10/03 10:59:04;;;;;;;12.75;6.88;;;;;;;25.84;42.96;100408.63;4991552;28;20222;-73
2023/10/03 11:01:36;;;;;;;14.65;6.80;;;;;;;25.90;43.75;100404.94;4990491;28;20381;-73
2023/10/03 11:04:03;;;;;;;14.07;7.18;;;;;;;25.97;42.38;100393.19;4989560;28;20203;-73
2023/10/03 11:06:30;;;;;;;16.70;6.63;;;;;;;26.04;42.14;100403.78;4990143;28;20390;-73
2023/10/03 11:08:57;;;;;;;13.48;6.70;;;;;;;26.13;41.90;100401.94;4989970;28;20208;-74
2023/10/03 11:11:34;;;;;;;17.00;7.15;;;;;;;26.21;42.83;100403.22;4991301;28;20224;-73
2023/10/03 11:14:01;;;;;;;12.88;7.38;;;;;;;26.29;44.26;100406.47;4985340;28;20223;-74
2023/10/03 11:16:28;;;;;;;14.60;6.75;;;;;;;26.40;42.42;100404.94;4990090;28;20216;-74
2023/10/03 11:18:58;;;;;;;14.95;7.05;;;;;;;26.50;42.11;100411.97;4988039;28;20775;-74
2023/10/03 11:21:25;;;;;;;14.50;6.60;;;;;;;26.57;43.32;100403.63;4991746;28;20215;-74
2023/10/03 11:24:13;;;;;;;16.02;7.05;;;;;;;26.67;41.66;100404.47;4989999;28;20208;-73